Station Historical Data
Daily Summary for July 20, 2017 Units:  English    Metric   Both
« Previous Day
Next Day »
Daily Weekly Monthly Yearly Custom
  High: Low: Average:
Temperature: 78.6 °F 63.4 °F 71.2 °F
Dew Point: 69.8 °F 60.2 °F 66.2 °F
Humidity: 93% 67% 84%
Wind Speed: 12.0mph 0.0mph 1.8mph
Wind Gust: 18.0mph - -
Wind- - SSW
Pressure: 30.00 in 29.87 in -
Precipitation: 0.00 in    
Historical Graphs
 
 
Tabular Data for July 20, 2017
Time Temperature Dew Point Pressure Wind Wind Speed Wind Gust Humidity Rainfall Rate (Hourly)
00:04 72.5 °F 68.7 °F 29.99 in Calm     88% 0.00 in
00:09 72.3 °F 68.5 °F 30.00 in Calm     88% 0.00 in
00:14 72.2 °F 68.4 °F 30.00 in Calm     88% 0.00 in
00:19 72.2 °F 68.8 °F 30.00 in Calm     89% 0.00 in
00:24 72.2 °F 68.8 °F 29.99 in Calm     89% 0.00 in
00:29 72.1 °F 68.7 °F 29.99 in Calm     89% 0.00 in
00:34 72.0 °F 68.6 °F 29.99 in Calm     89% 0.00 in
00:39 71.9 °F 68.5 °F 29.99 in Calm     89% 0.00 in
00:44 71.9 °F 68.5 °F 30.00 in Calm     89% 0.00 in
00:49 71.9 °F 68.8 °F 30.00 in Calm     90% 0.00 in
00:54 71.9 °F 68.5 °F 30.00 in Calm     89% 0.00 in
00:59 71.8 °F 68.4 °F 30.00 in Calm     89% 0.00 in
01:04 71.6 °F 68.2 °F 30.00 in Calm     89% 0.00 in
01:09 71.5 °F 68.1 °F 30.00 in Calm     89% 0.00 in
01:14 71.3 °F 67.9 °F 30.00 in Calm     89% 0.00 in
01:19 71.2 °F 67.8 °F 30.00 in Calm     89% 0.00 in
01:24 71.0 °F 67.9 °F 29.99 in Calm     90% 0.00 in
01:29 70.7 °F 67.6 °F 29.99 in Calm     90% 0.00 in
01:34 70.5 °F 67.4 °F 29.99 in Calm     90% 0.00 in
01:39 70.3 °F 67.2 °F 29.98 in Calm     90% 0.00 in
01:44 70.3 °F 67.2 °F 29.98 in Calm     90% 0.00 in
01:49 70.1 °F 67.0 °F 29.98 in Calm     90% 0.00 in
01:54 69.9 °F 66.8 °F 29.98 in Calm     90% 0.00 in
01:59 69.8 °F 66.7 °F 29.98 in Calm     90% 0.00 in
02:04 69.7 °F 66.6 °F 29.98 in Calm     90% 0.00 in
02:09 69.8 °F 66.7 °F 29.98 in Calm     90% 0.00 in
02:14 69.8 °F 66.7 °F 29.98 in Calm     90% 0.00 in
02:19 69.8 °F 66.4 °F 29.98 in Calm     89% 0.00 in
02:24 70.2 °F 66.5 °F 29.98 in Calm     88% 0.00 in
02:29 70.4 °F 66.0 °F 29.98 in Calm     86% 0.00 in
02:34 70.3 °F 66.2 °F 29.98 in Calm     87% 0.00 in
02:39 70.4 °F 66.0 °F 29.98 in Calm     86% 0.00 in
02:44 70.2 °F 65.8 °F 29.99 in Calm     86% 0.00 in
02:49 70.0 °F 66.0 °F 29.99 in Calm     87% 0.00 in
02:54 70.1 °F 65.7 °F 29.99 in Calm     86% 0.00 in
02:59 69.9 °F 65.9 °F 29.99 in Calm   4.0 mph 87% 0.00 in
03:04 70.0 °F 66.0 °F 29.99 in WNW 1.0 mph 4.0 mph 87% 0.00 in
03:09 70.0 °F 65.6 °F 29.98 in NW 1.0 mph 4.0 mph 86% 0.00 in
03:14 69.9 °F 65.5 °F 29.99 in Calm     86% 0.00 in
03:19 69.8 °F 65.4 °F 29.98 in Calm   2.0 mph 86% 0.00 in
03:24 69.7 °F 65.0 °F 29.98 in Calm     85% 0.00 in
03:29 69.5 °F 64.8 °F 29.97 in Calm     85% 0.00 in
03:34 69.1 °F 64.4 °F 29.98 in Calm     85% 0.00 in
03:39 68.8 °F 64.4 °F 29.98 in Calm     86% 0.00 in
03:44 68.6 °F 64.2 °F 29.98 in Calm     86% 0.00 in
03:49 68.6 °F 64.2 °F 29.98 in Calm     86% 0.00 in
03:54 68.7 °F 64.0 °F 29.98 in Calm     85% 0.00 in
03:59 68.4 °F 64.0 °F 29.97 in Calm     86% 0.00 in
04:04 68.2 °F 63.9 °F 29.97 in Calm     86% 0.00 in
04:09 68.1 °F 63.8 °F 29.97 in Calm     86% 0.00 in
04:19 68.3 °F 63.9 °F 29.96 in Calm     86% 0.00 in
04:24 68.0 °F 63.7 °F 29.96 in Calm     86% 0.00 in
04:29 67.6 °F 63.3 °F 29.97 in Calm     86% 0.00 in
04:34 67.6 °F 63.6 °F 29.97 in Calm     87% 0.00 in
04:39 67.2 °F 63.2 °F 29.97 in Calm     87% 0.00 in
04:44 66.9 °F 63.2 °F 29.97 in Calm     88% 0.00 in
04:49 66.9 °F 63.2 °F 29.97 in Calm     88% 0.00 in
04:54 66.8 °F 63.1 °F 29.97 in Calm     88% 0.00 in
04:59 66.9 °F 63.2 °F 29.98 in Calm     88% 0.00 in
05:04 67.1 °F 63.4 °F 29.98 in Calm     88% 0.00 in
05:09 67.1 °F 63.4 °F 29.98 in Calm     88% 0.00 in
05:14 67.1 °F 63.4 °F 29.98 in Calm     88% 0.00 in
05:19 66.9 °F 63.2 °F 29.98 in Calm     88% 0.00 in
05:24 66.8 °F 63.1 °F 29.98 in Calm     88% 0.00 in
05:29 66.7 °F 63.0 °F 29.98 in Calm     88% 0.00 in
05:34 66.5 °F 63.2 °F 29.98 in Calm     89% 0.00 in
05:39 66.5 °F 63.2 °F 29.98 in Calm     89% 0.00 in
05:44 66.7 °F 63.4 °F 29.98 in Calm     89% 0.00 in
05:49 67.0 °F 63.6 °F 29.97 in Calm     89% 0.00 in
05:54 66.9 °F 63.6 °F 29.97 in Calm     89% 0.00 in
05:59 66.6 °F 63.3 °F 29.97 in Calm     89% 0.00 in
06:04 66.4 °F 63.1 °F 29.97 in Calm     89% 0.00 in
06:09 66.6 °F 63.6 °F 29.97 in Calm     90% 0.00 in
06:14 66.5 °F 63.2 °F 29.97 in Calm     89% 0.00 in
06:19 66.6 °F 63.6 °F 29.96 in Calm     90% 0.00 in
06:24 66.8 °F 63.8 °F 29.96 in Calm     90% 0.00 in
06:29 66.9 °F 64.2 °F 29.96 in Calm     91% 0.00 in
06:34 67.0 °F 64.0 °F 29.96 in Calm     90% 0.00 in
06:39 66.9 °F 63.9 °F 29.97 in Calm     90% 0.00 in
06:44 66.8 °F 63.8 °F 29.97 in Calm     90% 0.00 in
06:49 66.8 °F 64.1 °F 29.97 in Calm     91% 0.00 in
06:54 66.9 °F 64.2 °F 29.97 in Calm     91% 0.00 in
06:59 67.4 °F 64.7 °F 29.98 in Calm     91% 0.00 in
07:04 67.9 °F 65.2 °F 29.98 in Calm     91% 0.00 in
07:09 68.4 °F 65.4 °F 29.98 in Calm     90% 0.00 in
07:14 69.0 °F 65.9 °F 29.98 in Calm     90% 0.00 in
07:19 69.4 °F 66.0 °F 29.98 in Calm     89% 0.00 in
07:24 69.8 °F 66.1 °F 29.98 in Calm     88% 0.00 in
07:29 70.1 °F 66.0 °F 29.99 in WSW 1.0 mph 3.0 mph 87% 0.00 in
07:34 70.3 °F 66.2 °F 29.99 in WSW 2.0 mph 4.0 mph 87% 0.00 in
07:39 70.4 °F 66.3 °F 29.98 in West 1.0 mph 4.0 mph 87% 0.00 in
07:44 70.7 °F 66.3 °F 29.98 in SW 3.0 mph 4.0 mph 86% 0.00 in
07:49 71.0 °F 66.6 °F 29.98 in WSW 1.0 mph 4.0 mph 86% 0.00 in
07:54 71.2 °F 66.8 °F 29.98 in Calm   3.0 mph 86% 0.00 in
07:59 71.8 °F 67.0 °F 29.98 in Calm     85% 0.00 in
08:04 72.5 °F 67.4 °F 29.98 in SSW 4.0 mph 7.0 mph 84% 0.00 in
08:09 72.7 °F 67.2 °F 29.99 in SW 2.0 mph 6.0 mph 83% 0.00 in
08:14 73.0 °F 67.5 °F 29.99 in WSW 2.0 mph 5.0 mph 83% 0.00 in
08:19 73.2 °F 67.4 °F 29.99 in WSW 2.0 mph 5.0 mph 82% 0.00 in
08:24 73.3 °F 67.5 °F 29.98 in SW 2.0 mph 6.0 mph 82% 0.00 in
08:29 73.5 °F 67.3 °F 29.98 in SW 2.0 mph 6.0 mph 81% 0.00 in
08:34 73.7 °F 67.5 °F 29.98 in SW 2.0 mph 6.0 mph 81% 0.00 in
08:39 74.3 °F 67.4 °F 29.97 in SW 2.0 mph 6.0 mph 79% 0.00 in
08:44 74.3 °F 67.4 °F 29.97 in SW 4.0 mph 5.0 mph 79% 0.00 in
08:49 74.5 °F 67.2 °F 29.97 in SW 3.0 mph 6.0 mph 78% 0.00 in
08:54 74.8 °F 67.1 °F 29.96 in Calm   4.0 mph 77% 0.00 in
08:59 75.7 °F 67.6 °F 29.96 in SSW 4.0 mph 6.0 mph 76% 0.00 in
09:04 76.2 °F 67.3 °F 29.96 in SSE 2.0 mph 7.0 mph 74% 0.00 in
09:09 76.1 °F 66.4 °F 29.96 in South 3.0 mph 9.0 mph 72% 0.00 in
09:14 75.8 °F 66.5 °F 29.96 in SSW 4.0 mph 9.0 mph 73% 0.00 in
09:19 75.8 °F 66.5 °F 29.96 in SW 3.0 mph 7.0 mph 73% 0.00 in
09:24 75.7 °F 66.4 °F 29.96 in SW 2.0 mph 7.0 mph 73% 0.00 in
09:29 75.6 °F 66.3 °F 29.95 in SSE 4.0 mph 4.0 mph 73% 0.00 in
09:34 75.6 °F 66.7 °F 29.95 in SSW 1.0 mph 5.0 mph 74% 0.00 in
09:39 75.9 °F 67.0 °F 29.94 in SSW 1.0 mph 5.0 mph 74% 0.00 in
09:44 76.2 °F 66.9 °F 29.94 in SSW 2.0 mph 5.0 mph 73% 0.00 in
09:49 76.4 °F 67.1 °F 29.95 in SSW 2.0 mph 4.0 mph 73% 0.00 in
09:54 76.6 °F 67.3 °F 29.95 in SW 2.0 mph 5.0 mph 73% 0.00 in
09:59 76.7 °F 66.6 °F 29.95 in SW 2.0 mph 6.0 mph 71% 0.00 in
10:04 76.8 °F 67.1 °F 29.94 in SW 3.0 mph 6.0 mph 72% 0.00 in
10:09 77.6 °F 67.9 °F 29.95 in WSW 2.0 mph 5.0 mph 72% 0.00 in
10:14 77.9 °F 67.3 °F 29.94 in SSW 3.0 mph 7.0 mph 70% 0.00 in
10:19 78.3 °F 67.3 °F 29.94 in SSW 3.0 mph 7.0 mph 69% 0.00 in
10:24 78.6 °F 68.0 °F 29.93 in South 3.0 mph 6.0 mph 70% 0.00 in
10:29 78.6 °F 67.6 °F 29.93 in SSE 1.0 mph 6.0 mph 69% 0.00 in
10:34 78.0 °F 67.4 °F 29.93 in SW 1.0 mph 6.0 mph 70% 0.00 in
10:39 78.2 °F 67.6 °F 29.93 in Calm   5.0 mph 70% 0.00 in
10:44 78.2 °F 67.6 °F 29.93 in SW 2.0 mph 4.0 mph 70% 0.00 in
10:49 78.2 °F 67.2 °F 29.92 in SSW 2.0 mph 5.0 mph 69% 0.00 in
10:54 78.0 °F 67.4 °F 29.92 in South 2.0 mph 5.0 mph 70% 0.00 in
10:59 77.8 °F 66.0 °F 29.92 in South 2.0 mph 7.0 mph 67% 0.00 in
11:04 77.7 °F 66.7 °F 29.92 in SSW 2.0 mph 7.0 mph 69% 0.00 in
11:09 77.4 °F 66.0 °F 29.92 in Calm   7.0 mph 68% 0.00 in
11:14 77.4 °F 66.4 °F 29.91 in SSW 4.0 mph 5.0 mph 69% 0.00 in
11:19 77.5 °F 66.5 °F 29.92 in SSW 2.0 mph 5.0 mph 69% 0.00 in
11:24 77.5 °F 66.5 °F 29.92 in Calm   4.0 mph 69% 0.00 in
11:29 77.4 °F 66.8 °F 29.92 in SW 3.0 mph 3.0 mph 70% 0.00 in
11:34 77.2 °F 66.7 °F 29.91 in SSW 5.0 mph 5.0 mph 70% 0.00 in
11:39 77.2 °F 67.1 °F 29.91 in SSW 1.0 mph 5.0 mph 71% 0.00 in
11:44 76.7 °F 67.8 °F 29.91 in SSW 1.0 mph 4.0 mph 74% 0.00 in
11:49 76.5 °F 68.4 °F 29.92 in South 1.0 mph 4.0 mph 76% 0.00 in
11:54 76.0 °F 68.6 °F 29.92 in South 1.0 mph 2.0 mph 78% 0.00 in
11:59 75.5 °F 68.5 °F 29.91 in Calm   1.0 mph 79% 0.02 in
12:04 74.8 °F 68.9 °F 29.92 in Calm   3.0 mph 82% 0.04 in
12:09 74.2 °F 69.1 °F 29.92 in SSW 1.0 mph 3.0 mph 84% 0.12 in
12:14 73.4 °F 69.0 °F 29.92 in Calm   3.0 mph 86% 0.19 in
12:19 72.7 °F 68.6 °F 29.95 in NNW 2.0 mph 6.0 mph 87% 0.33 in
12:24 72.2 °F 68.4 °F 29.94 in NNW 4.0 mph 10.0 mph 88% 0.58 in
12:29 71.0 °F 67.3 °F 29.90 in NE 3.0 mph 10.0 mph 88% 0.96 in
12:34 69.9 °F 66.5 °F 29.95 in WNW 5.0 mph 8.0 mph 89% 0.99 in
12:39 69.5 °F 66.4 °F 29.93 in Calm   5.0 mph 90% 1.13 in
12:44 69.6 °F 66.5 °F 29.93 in Calm     90% 1.16 in
12:49 69.8 °F 67.1 °F 29.93 in NNE 3.0 mph 4.0 mph 91% 1.17 in
12:54 69.9 °F 67.2 °F 29.94 in NNE 2.0 mph 5.0 mph 91% 1.17 in
12:59 68.9 °F 65.5 °F 29.94 in North 4.0 mph 17.0 mph 89% 1.15 in
13:04 67.4 °F 64.4 °F 29.95 in North 5.0 mph 17.0 mph 90% 1.18 in
13:09 66.6 °F 63.6 °F 29.95 in North 5.0 mph 17.0 mph 90% 1.13 in
13:14 66.4 °F 63.7 °F 29.97 in North 6.0 mph 17.0 mph 91% 1.08 in
13:19 65.4 °F 62.4 °F 29.96 in NW 4.0 mph 9.0 mph 90% 0.95 in
13:24 65.2 °F 62.2 °F 29.97 in NNE 5.0 mph 13.0 mph 90% 0.71 in
13:29 64.5 °F 61.5 °F 29.96 in NNE 4.0 mph 13.0 mph 90% 0.33 in
13:34 63.9 °F 60.9 °F 29.97 in NE 2.0 mph 11.0 mph 90% 0.30 in
13:39 63.7 °F 60.7 °F 29.96 in NNE 3.0 mph 9.0 mph 90% 0.16 in
13:44 63.4 °F 60.7 °F 29.96 in ENE 3.0 mph 9.0 mph 91% 0.13 in
13:49 63.5 °F 60.5 °F 29.96 in ENE 3.0 mph 12.0 mph 90% 0.12 in
13:54 63.4 °F 60.4 °F 29.95 in NE 6.0 mph 14.0 mph 90% 0.12 in
13:59 63.4 °F 60.4 °F 29.94 in NE 4.0 mph 17.0 mph 90% 0.12 in
14:04 63.7 °F 60.7 °F 29.94 in NE 11.0 mph 13.0 mph 90% 0.07 in
14:09 63.7 °F 60.4 °F 29.94 in ENE 12.0 mph 15.0 mph 89% 0.04 in
14:14 63.9 °F 60.6 °F 29.94 in NNE 10.0 mph 18.0 mph 89% 0.02 in
14:19 64.1 °F 60.5 °F 29.93 in ENE 7.0 mph 13.0 mph 88% 0.01 in
14:24 64.3 °F 60.7 °F 29.93 in ENE 7.0 mph 15.0 mph 88% 0.00 in
14:29 64.8 °F 60.2 °F 29.94 in ENE 8.0 mph 15.0 mph 85% 0.00 in
14:34 65.6 °F 61.0 °F 29.94 in ENE 8.0 mph 15.0 mph 85% 0.00 in
14:39 65.7 °F 60.7 °F 29.94 in East 5.0 mph 12.0 mph 84% 0.00 in
14:44 65.7 °F 60.7 °F 29.93 in East 5.0 mph 11.0 mph 84% 0.00 in
14:49 65.5 °F 60.2 °F 29.93 in ENE 5.0 mph 10.0 mph 83% 0.00 in
14:54 65.6 °F 60.6 °F 29.93 in ENE 4.0 mph 10.0 mph 84% 0.00 in
14:59 65.7 °F 60.7 °F 29.93 in East 2.0 mph 7.0 mph 84% 0.00 in
15:04 66.0 °F 61.0 °F 29.93 in ENE 4.0 mph 9.0 mph 84% 0.00 in
15:09 65.9 °F 60.9 °F 29.93 in East 1.0 mph 9.0 mph 84% 0.00 in
15:14 65.9 °F 60.9 °F 29.92 in ESE 2.0 mph 8.0 mph 84% 0.00 in
15:19 65.8 °F 60.8 °F 29.92 in ESE 2.0 mph 9.0 mph 84% 0.00 in
15:24 66.2 °F 61.6 °F 29.91 in ESE 3.0 mph 9.0 mph 85% 0.00 in
15:29 67.0 °F 62.0 °F 29.91 in ESE 3.0 mph 11.0 mph 84% 0.00 in
15:34 66.9 °F 61.6 °F 29.91 in ESE 4.0 mph 11.0 mph 83% 0.00 in
15:39 67.4 °F 62.4 °F 29.91 in ESE 3.0 mph 9.0 mph 84% 0.00 in
15:44 67.7 °F 62.7 °F 29.91 in SSE 2.0 mph 7.0 mph 84% 0.00 in
15:49 67.9 °F 62.5 °F 29.91 in SE 6.0 mph 9.0 mph 83% 0.00 in
15:54 68.3 °F 62.9 °F 29.91 in SE 3.0 mph 9.0 mph 83% 0.00 in
15:59 68.5 °F 63.1 °F 29.91 in SSE 4.0 mph 7.0 mph 83% 0.00 in
16:04 68.3 °F 62.9 °F 29.91 in SSE 4.0 mph 7.0 mph 83% 0.00 in
16:09 68.4 °F 63.4 °F 29.91 in SE 3.0 mph 7.0 mph 84% 0.00 in
16:14 68.5 °F 63.1 °F 29.90 in ESE 4.0 mph 8.0 mph 83% 0.00 in
16:19 68.6 °F 63.2 °F 29.91 in South 2.0 mph 8.0 mph 83% 0.00 in
16:24 68.9 °F 63.5 °F 29.90 in SSE 2.0 mph 8.0 mph 83% 0.00 in
16:29 69.4 °F 64.0 °F 29.90 in SSE 3.0 mph 7.0 mph 83% 0.00 in
16:34 69.7 °F 64.3 °F 29.90 in SSE 3.0 mph 7.0 mph 83% 0.00 in
16:39 70.6 °F 64.8 °F 29.90 in South 4.0 mph 6.0 mph 82% 0.00 in
16:44 71.6 °F 65.5 °F 29.89 in SSE 5.0 mph 6.0 mph 81% 0.00 in
16:49 71.8 °F 65.7 °F 29.89 in South 2.0 mph 6.0 mph 81% 0.00 in
16:54 72.1 °F 65.9 °F 29.89 in SSE 3.0 mph 6.0 mph 81% 0.00 in
16:59 72.6 °F 66.1 °F 29.89 in SSE 2.0 mph 6.0 mph 80% 0.00 in
17:04 73.2 °F 66.7 °F 29.89 in South 2.0 mph 5.0 mph 80% 0.00 in
17:09 73.3 °F 66.8 °F 29.89 in SSW 2.0 mph 4.0 mph 80% 0.00 in
17:14 73.3 °F 66.4 °F 29.89 in Calm   5.0 mph 79% 0.00 in
17:19 73.7 °F 67.1 °F 29.89 in SSW 4.0 mph 5.0 mph 80% 0.00 in
17:24 74.2 °F 67.3 °F 29.89 in SSW 2.0 mph 5.0 mph 79% 0.00 in
17:29 74.1 °F 67.2 °F 29.89 in SSW 3.0 mph 7.0 mph 79% 0.00 in
17:34 74.3 °F 67.7 °F 29.88 in SW 4.0 mph 5.0 mph 80% 0.00 in
17:39 74.4 °F 67.8 °F 29.88 in SSE 3.0 mph 7.0 mph 80% 0.00 in
17:44 74.6 °F 67.7 °F 29.88 in South 2.0 mph 6.0 mph 79% 0.00 in
17:49 75.3 °F 68.0 °F 29.88 in South 2.0 mph 6.0 mph 78% 0.00 in
17:54 75.6 °F 68.3 °F 29.88 in SSW 3.0 mph 7.0 mph 78% 0.00 in
17:59 76.0 °F 68.6 °F 29.88 in SW 4.0 mph 7.0 mph 78% 0.00 in
18:04 76.5 °F 68.7 °F 29.87 in SW 4.0 mph 8.0 mph 77% 0.00 in
18:09 76.6 °F 68.8 °F 29.88 in SSW 4.0 mph 8.0 mph 77% 0.00 in
18:14 76.4 °F 68.7 °F 29.88 in SW 4.0 mph 8.0 mph 77% 0.00 in
18:19 76.4 °F 68.7 °F 29.88 in WSW 5.0 mph 8.0 mph 77% 0.00 in
18:24 75.8 °F 68.8 °F 29.88 in SW 4.0 mph 10.0 mph 79% 0.00 in
18:29 75.8 °F 68.8 °F 29.88 in SW 4.0 mph 10.0 mph 79% 0.00 in
18:34 76.0 °F 69.0 °F 29.88 in WSW 2.0 mph 7.0 mph 79% 0.00 in
18:39 76.1 °F 69.1 °F 29.88 in SSW 6.0 mph 9.0 mph 79% 0.00 in
18:44 75.9 °F 68.9 °F 29.88 in WSW 5.0 mph 8.0 mph 79% 0.00 in
18:49 75.9 °F 68.9 °F 29.88 in WNW 2.0 mph 6.0 mph 79% 0.00 in
18:54 75.9 °F 68.9 °F 29.88 in WSW 4.0 mph 9.0 mph 79% 0.00 in
18:59 75.7 °F 69.1 °F 29.88 in WSW 4.0 mph 9.0 mph 80% 0.00 in
19:04 75.9 °F 69.3 °F 29.88 in WSW 4.0 mph 6.0 mph 80% 0.00 in
19:09 75.7 °F 69.1 °F 29.88 in WSW 4.0 mph 7.0 mph 80% 0.00 in
19:14 75.3 °F 68.7 °F 29.88 in SW 3.0 mph 10.0 mph 80% 0.00 in
19:19 75.3 °F 69.1 °F 29.88 in WSW 3.0 mph 7.0 mph 81% 0.00 in
19:24 75.2 °F 69.0 °F 29.88 in West 3.0 mph 9.0 mph 81% 0.00 in
19:29 75.0 °F 69.1 °F 29.89 in WSW 5.0 mph 9.0 mph 82% 0.00 in
19:34 74.8 °F 69.3 °F 29.89 in SW 4.0 mph 7.0 mph 83% 0.00 in
19:39 74.6 °F 69.1 °F 29.89 in WSW 3.0 mph 7.0 mph 83% 0.00 in
19:44 74.5 °F 69.0 °F 29.88 in SW 6.0 mph 8.0 mph 83% 0.00 in
19:49 74.3 °F 68.8 °F 29.88 in WSW 5.0 mph 8.0 mph 83% 0.00 in
19:54 74.3 °F 68.8 °F 29.89 in WSW 5.0 mph 7.0 mph 83% 0.00 in
19:59 74.2 °F 68.7 °F 29.89 in WSW 3.0 mph 7.0 mph 83% 0.00 in
20:04 74.1 °F 68.6 °F 29.89 in WSW 4.0 mph 7.0 mph 83% 0.00 in
20:09 73.9 °F 68.4 °F 29.89 in SW 4.0 mph 7.0 mph 83% 0.00 in
20:14 73.7 °F 68.6 °F 29.89 in WSW 6.0 mph 8.0 mph 84% 0.00 in
20:19 73.6 °F 68.5 °F 29.89 in SW 5.0 mph 7.0 mph 84% 0.00 in
20:24 73.4 °F 68.3 °F 29.89 in SW 4.0 mph 7.0 mph 84% 0.00 in
20:29 73.3 °F 68.5 °F 29.89 in SW 3.0 mph 7.0 mph 85% 0.00 in
20:34 73.1 °F 68.3 °F 29.89 in SW 3.0 mph 7.0 mph 85% 0.00 in
20:39 72.9 °F 68.5 °F 29.89 in SW 3.0 mph 6.0 mph 86% 0.00 in
20:44 72.7 °F 68.3 °F 29.89 in WSW 2.0 mph 5.0 mph 86% 0.00 in
20:49 72.5 °F 68.1 °F 29.89 in SW 4.0 mph 6.0 mph 86% 0.00 in
20:54 72.4 °F 68.3 °F 29.89 in SW 2.0 mph 6.0 mph 87% 0.00 in
20:59 72.3 °F 68.2 °F 29.89 in SW 2.0 mph 5.0 mph 87% 0.00 in
21:04 72.1 °F 68.0 °F 29.89 in SW 2.0 mph 4.0 mph 87% 0.00 in
21:09 72.0 °F 68.2 °F 29.89 in WSW 2.0 mph 4.0 mph 88% 0.00 in
21:14 71.9 °F 68.2 °F 29.89 in SW 3.0 mph 4.0 mph 88% 0.00 in
21:19 71.9 °F 68.2 °F 29.89 in Calm   4.0 mph 88% 0.00 in
21:24 71.8 °F 68.4 °F 29.89 in SW 3.0 mph 5.0 mph 89% 0.00 in
21:29 71.8 °F 68.4 °F 29.89 in SW 1.0 mph 5.0 mph 89% 0.00 in
21:34 71.7 °F 68.3 °F 29.89 in Calm   4.0 mph 89% 0.00 in
21:39 71.6 °F 68.2 °F 29.90 in Calm   4.0 mph 89% 0.00 in
21:44 71.5 °F 68.1 °F 29.90 in SW 1.0 mph 4.0 mph 89% 0.00 in
21:49 71.4 °F 68.3 °F 29.89 in SW 1.0 mph 4.0 mph 90% 0.00 in
21:54 71.4 °F 68.3 °F 29.89 in SW 1.0 mph 4.0 mph 90% 0.00 in
21:59 71.3 °F 68.2 °F 29.89 in Calm   2.0 mph 90% 0.00 in
22:04 71.3 °F 68.2 °F 29.90 in Calm   2.0 mph 90% 0.00 in
22:09 71.4 °F 68.3 °F 29.90 in SW 1.0 mph 2.0 mph 90% 0.00 in
22:14 71.5 °F 68.7 °F 29.90 in Calm   2.0 mph 91% 0.00 in
22:19 71.6 °F 68.8 °F 29.90 in Calm   1.0 mph 91% 0.00 in
22:24 71.6 °F 68.8 °F 29.90 in WSW 1.0 mph 3.0 mph 91% 0.00 in
22:29 71.7 °F 68.9 °F 29.90 in Calm   3.0 mph 91% 0.00 in
22:34 71.7 °F 68.9 °F 29.90 in Calm     91% 0.00 in
22:39 71.8 °F 69.0 °F 29.90 in Calm   2.0 mph 91% 0.00 in
22:44 71.9 °F 69.1 °F 29.90 in SW 1.0 mph 4.0 mph 91% 0.00 in
22:49 71.9 °F 69.1 °F 29.90 in Calm   4.0 mph 91% 0.00 in
22:54 71.9 °F 69.1 °F 29.90 in Calm   4.0 mph 91% 0.00 in
22:59 71.7 °F 68.9 °F 29.89 in Calm   1.0 mph 91% 0.00 in
23:04 71.7 °F 68.9 °F 29.89 in Calm   2.0 mph 91% 0.00 in
23:09 71.8 °F 69.0 °F 29.89 in Calm   2.0 mph 91% 0.00 in
23:14 71.8 °F 69.0 °F 29.89 in Calm   2.0 mph 91% 0.00 in
23:19 71.7 °F 68.9 °F 29.89 in Calm   1.0 mph 91% 0.00 in
23:24 71.6 °F 69.2 °F 29.89 in Calm   4.0 mph 92% 0.00 in
23:29 71.6 °F 69.2 °F 29.90 in Calm     92% 0.00 in
23:34 71.5 °F 69.1 °F 29.90 in Calm     92% 0.00 in
23:39 71.5 °F 69.1 °F 29.90 in Calm     92% 0.00 in
23:44 71.6 °F 69.2 °F 29.90 in Calm     92% 0.00 in
23:49 71.6 °F 69.2 °F 29.90 in Calm   3.0 mph 92% 0.00 in
23:54 71.7 °F 69.3 °F 29.90 in Calm   3.0 mph 92% 0.00 in
23:59 71.9 °F 69.8 °F 29.90 in Calm     93% 0.00 in
Buffalo, New York, USA
Compliments of Weather Underground - 2.5 mb